sensor_id;sensor_type;location;lat;lon;timestamp;pressure;altitude;pressure_sealevel;temperature;humidity
21821;BME280;11073;48.586;12.066;2023-02-12T00:01:30;98269.81;;;5.82;62.36
21821;BME280;11073;48.586;12.066;2023-02-12T00:03:59;98264.59;;;5.80;62.41
21821;BME280;11073;48.586;12.066;2023-02-12T00:06:27;98271.31;;;5.85;62.43
21821;BME280;11073;48.586;12.066;2023-02-12T00:08:56;98277.53;;;5.85;62.52
21821;BME280;11073;48.586;12.066;2023-02-12T00:11:27;98277.38;;;5.87;62.58
21821;BME280;11073;48.586;12.066;2023-02-12T00:13:56;98280.91;;;5.87;62.54
21821;BME280;11073;48.586;12.066;2023-02-12T00:16:27;98264.94;;;5.86;62.75
21821;BME280;11073;48.586;12.066;2023-02-12T00:18:57;98261.56;;;5.84;62.76
21821;BME280;11073;48.586;12.066;2023-02-12T00:21:27;98276.19;;;5.81;63.02
21821;BME280;11073;48.586;12.066;2023-02-12T00:23:56;98264.91;;;5.77;63.19
21821;BME280;11073;48.586;12.066;2023-02-12T00:26:24;98262.06;;;5.79;63.21
21821;BME280;11073;48.586;12.066;2023-02-12T00:28:53;98264.59;;;5.80;63.34
21821;BME280;11073;48.586;12.066;2023-02-12T00:31:24;98263.22;;;5.76;63.29
21821;BME280;11073;48.586;12.066;2023-02-12T00:33:57;98267.28;;;5.80;63.50
21821;BME280;11073;48.586;12.066;2023-02-12T00:36:29;98277.03;;;5.81;63.67
21821;BME280;11073;48.586;12.066;2023-02-12T00:38:59;98273.50;;;5.81;63.65
21821;BME280;11073;48.586;12.066;2023-02-12T00:41:28;98267.28;;;5.80;63.72
21821;BME280;11073;48.586;12.066;2023-02-12T00:43:57;98262.41;;;5.76;63.91
21821;BME280;11073;48.586;12.066;2023-02-12T00:46:26;98255.16;;;5.68;63.99
21821;BME280;11073;48.586;12.066;2023-02-12T00:48:56;98253.94;;;5.63;64.16
21821;BME280;11073;48.586;12.066;2023-02-12T00:51:24;98248.22;;;5.58;64.35
21821;BME280;11073;48.586;12.066;2023-02-12T00:53:53;98241.66;;;5.52;64.46
21821;BME280;11073;48.586;12.066;2023-02-12T00:56:23;98252.59;;;5.50;64.75
21821;BME280;11073;48.586;12.066;2023-02-12T00:58:51;98247.88;;;5.44;64.98
21821;BME280;11073;48.586;12.066;2023-02-12T01:01:20;98259.47;;;5.53;65.07
21821;BME280;11073;48.586;12.066;2023-02-12T01:03:49;98263.66;;;5.56;65.12
21821;BME280;11073;48.586;12.066;2023-02-12T01:06:20;98262.66;;;5.57;65.18
21821;BME280;11073;48.586;12.066;2023-02-12T01:08:49;98269.72;;;5.58;65.26
21821;BME280;11073;48.586;12.066;2023-02-12T01:11:19;98274.59;;;5.54;65.36
21821;BME280;11073;48.586;12.066;2023-02-12T01:13:48;98275.06;;;5.49;65.46
21821;BME280;11073;48.586;12.066;2023-02-12T01:16:19;98276.41;;;5.45;65.59
21821;BME280;11073;48.586;12.066;2023-02-12T01:18:49;98275.75;;;5.51;65.71
21821;BME280;11073;48.586;12.066;2023-02-12T01:21:26;98286.34;;;5.53;65.88
21821;BME280;11073;48.586;12.066;2023-02-12T01:23:55;98290.19;;;5.50;65.91
21821;BME280;11073;48.586;12.066;2023-02-12T01:26:26;98294.72;;;5.50;65.94
21821;BME280;11073;48.586;12.066;2023-02-12T01:28:57;98290.34;;;5.49;66.14
21821;BME280;11073;48.586;12.066;2023-02-12T01:31:30;98296.72;;;5.48;66.22
21821;BME280;11073;48.586;12.066;2023-02-12T01:33:59;98290.19;;;5.50;66.21
21821;BME280;11073;48.586;12.066;2023-02-12T01:36:30;98278.75;;;5.48;66.42
21821;BME280;11073;48.586;12.066;2023-02-12T01:38:58;98287.16;;;5.45;66.42
21821;BME280;11073;48.586;12.066;2023-02-12T01:41:30;98269.00;;;5.39;66.60
21821;BME280;11073;48.586;12.066;2023-02-12T01:44:05;98283.09;;;5.41;66.50
21821;BME280;11073;48.586;12.066;2023-02-12T01:46:34;98273.50;;;5.31;66.62
21821;BME280;11073;48.586;12.066;2023-02-12T01:49:06;98279.69;;;5.31;66.75
21821;BME280;11073;48.586;12.066;2023-02-12T01:51:38;98282.38;;;5.31;67.00
21821;BME280;11073;48.586;12.066;2023-02-12T01:54:10;98286.75;;;5.32;67.13
21821;BME280;11073;48.586;12.066;2023-02-12T01:56:41;98280.53;;;5.32;67.18
21821;BME280;11073;48.586;12.066;2023-02-12T01:59:10;98283.72;;;5.35;67.28
21821;BME280;11073;48.586;12.066;2023-02-12T02:01:39;98275.00;;;5.33;67.28
21821;BME280;11073;48.586;12.066;2023-02-12T02:04:11;98276.19;;;5.31;67.38
21821;BME280;11073;48.586;12.066;2023-02-12T02:06:48;98284.75;;;5.34;67.57
21821;BME280;11073;48.586;12.066;2023-02-12T02:09:18;98285.56;;;5.35;67.63
21821;BME280;11073;48.586;12.066;2023-02-12T02:11:47;98282.06;;;5.34;67.80
21821;BME280;11073;48.586;12.066;2023-02-12T02:14:34;98285.44;;;5.36;67.83
21821;BME280;11073;48.586;12.066;2023-02-12T02:17:21;98289.81;;;5.37;67.86
21821;BME280;11073;48.586;12.066;2023-02-12T02:20:15;98288.13;;;5.36;67.96
21821;BME280;11073;48.586;12.066;2023-02-12T02:23:00;98282.22;;;5.33;67.98
21821;BME280;11073;48.586;12.066;2023-02-12T02:26:04;98284.22;;;5.31;68.17
21821;BME280;11073;48.586;12.066;2023-02-12T02:28:58;98274.31;;;5.31;68.29
21821;BME280;11073;48.586;12.066;2023-02-12T02:31:37;98288.75;;;5.30;68.34
21821;BME280;11073;48.586;12.066;2023-02-12T02:34:10;98294.13;;;5.30;68.37
21821;BME280;11073;48.586;12.066;2023-02-12T02:36:44;98293.13;;;5.31;68.55
21821;BME280;11073;48.586;12.066;2023-02-12T02:39:34;98285.91;;;5.32;68.63
21821;BME280;11073;48.586;12.066;2023-02-12T02:42:09;98284.41;;;5.29;68.51
21821;BME280;11073;48.586;12.066;2023-02-12T02:44:44;98290.63;;;5.30;68.72
21821;BME280;11073;48.586;12.066;2023-02-12T02:47:16;98287.41;;;5.34;68.71
21821;BME280;11073;48.586;12.066;2023-02-12T02:49:51;98284.75;;;5.34;68.87
21821;BME280;11073;48.586;12.066;2023-02-12T02:52:27;98284.75;;;5.34;68.79
21821;BME280;11073;48.586;12.066;2023-02-12T02:55:02;98287.75;;;5.31;69.04
21821;BME280;11073;48.586;12.066;2023-02-12T02:57:37;98294.47;;;5.35;69.04
21821;BME280;11073;48.586;12.066;2023-02-12T03:00:12;98285.75;;;5.33;69.09
21821;BME280;11073;48.586;12.066;2023-02-12T03:02:47;98288.06;;;5.28;69.25
21821;BME280;11073;48.586;12.066;2023-02-12T03:05:22;98288.59;;;5.32;69.14
21821;BME280;11073;48.586;12.066;2023-02-12T03:07:56;98284.22;;;5.31;69.28
21821;BME280;11073;48.586;12.066;2023-02-12T03:10:30;98280.00;;;5.28;69.27
21821;BME280;11073;48.586;12.066;2023-02-12T03:13:05;98283.41;;;5.30;69.36
21821;BME280;11073;48.586;12.066;2023-02-12T03:15:37;98289.44;;;5.32;69.38
21821;BME280;11073;48.586;12.066;2023-02-12T03:18:10;98284.22;;;5.31;69.55
21821;BME280;11073;48.586;12.066;2023-02-12T03:20:44;98273.13;;;5.25;69.40
21821;BME280;11073;48.586;12.066;2023-02-12T03:23:18;98289.44;;;5.32;69.66
21821;BME280;11073;48.586;12.066;2023-02-12T03:25:53;98280.53;;;5.32;69.78
21821;BME280;11073;48.586;12.066;2023-02-12T03:28:27;98276.97;;;5.23;69.75
21821;BME280;11073;48.586;12.066;2023-02-12T03:31:04;98291.78;;;5.35;69.92
21821;BME280;11073;48.586;12.066;2023-02-12T03:33:41;98289.81;;;5.37;69.96
21821;BME280;11073;48.586;12.066;2023-02-12T03:36:17;98300.69;;;5.36;69.99
21821;BME280;11073;48.586;12.066;2023-02-12T03:38:52;98311.59;;;5.34;70.10
21821;BME280;11073;48.586;12.066;2023-02-12T03:41:26;98313.44;;;5.34;70.11
21821;BME280;11073;48.586;12.066;2023-02-12T03:44:03;98307.41;;;5.32;70.26
21821;BME280;11073;48.586;12.066;2023-02-12T03:46:39;98313.94;;;5.29;70.26
21821;BME280;11073;48.586;12.066;2023-02-12T03:49:16;98318.59;;;5.27;70.46
21821;BME280;11073;48.586;12.066;2023-02-12T03:51:48;98318.78;;;5.25;70.53
21821;BME280;11073;48.586;12.066;2023-02-12T03:54:19;98322.47;;;5.24;70.64
21821;BME280;11073;48.586;12.066;2023-02-12T03:56:51;98315.59;;;5.22;70.70
21821;BME280;11073;48.586;12.066;2023-02-12T03:59:22;98317.94;;;5.25;70.81
21821;BME280;11073;48.586;12.066;2023-02-12T04:01:54;98318.28;;;5.22;70.88
21821;BME280;11073;48.586;12.066;2023-02-12T04:04:25;98309.47;;;5.12;70.99
21821;BME280;11073;48.586;12.066;2023-02-12T04:06:54;98293.47;;;5.02;71.03
21821;BME280;11073;48.586;12.066;2023-02-12T04:09:25;98324.28;;;5.16;71.26
21821;BME280;11073;48.586;12.066;2023-02-12T04:12:05;98327.78;;;5.16;71.42
21821;BME280;11073;48.586;12.066;2023-02-12T04:14:47;98324.28;;;5.16;71.54
21821;BME280;11073;48.586;12.066;2023-02-12T04:17:21;98326.13;;;5.15;71.52
21821;BME280;11073;48.586;12.066;2023-02-12T04:20:05;98323.38;;;5.07;71.68
21821;BME280;11073;48.586;12.066;2023-02-12T04:22:44;98326.91;;;5.08;71.68
21821;BME280;11073;48.586;12.066;2023-02-12T04:25:22;98326.91;;;5.08;71.76
21821;BME280;11073;48.586;12.066;2023-02-12T04:27:57;98321.84;;;5.05;71.99
21821;BME280;11073;48.586;12.066;2023-02-12T04:30:46;98328.38;;;5.02;72.13
21821;BME280;11073;48.586;12.066;2023-02-12T04:33:21;98329.50;;;4.99;72.10
21821;BME280;11073;48.586;12.066;2023-02-12T04:36:19;98338.94;;;5.04;72.32
21821;BME280;11073;48.586;12.066;2023-02-12T04:42:10;98337.94;;;5.05;72.46
21821;BME280;11073;48.586;12.066;2023-02-12T04:45:30;98334.59;;;5.03;72.56
21821;BME280;11073;48.586;12.066;2023-02-12T04:50:02;98345.16;;;5.04;72.58
21821;BME280;11073;48.586;12.066;2023-02-12T05:02:38;98350.16;;;4.99;72.98
21821;BME280;11073;48.586;12.066;2023-02-12T05:06:46;98350.09;;;4.91;73.05
21821;BME280;11073;48.586;12.066;2023-02-12T05:10:42;98362.06;;;4.96;73.04
21821;BME280;11073;48.586;12.066;2023-02-12T05:14:13;98362.22;;;4.95;73.36
21821;BME280;11073;48.586;12.066;2023-02-12T05:22:14;98361.06;;;4.97;73.40
21821;BME280;11073;48.586;12.066;2023-02-12T05:25:06;98360.38;;;4.95;73.29
21821;BME280;11073;48.586;12.066;2023-02-12T05:29:25;98369.78;;;4.99;73.38
21821;BME280;11073;48.586;12.066;2023-02-12T05:33:05;98365.28;;;5.00;73.47
21821;BME280;11073;48.586;12.066;2023-02-12T05:36:05;98369.66;;;5.01;73.40
21821;BME280;11073;48.586;12.066;2023-02-12T05:39:22;98374.84;;;5.03;73.53
21821;BME280;11073;48.586;12.066;2023-02-12T05:42:40;98362.91;;;4.97;73.78
21821;BME280;11073;48.586;12.066;2023-02-12T05:50:40;98384.22;;;4.98;73.70
21821;BME280;11073;48.586;12.066;2023-02-12T05:54:58;98382.69;;;4.96;73.80
21821;BME280;11073;48.586;12.066;2023-02-12T06:21:37;98382.47;;;4.89;74.18
21821;BME280;11073;48.586;12.066;2023-02-12T06:30:14;98404.50;;;4.93;74.14
21821;BME280;11073;48.586;12.066;2023-02-12T06:34:12;98402.09;;;4.90;74.24
21821;BME280;11073;48.586;12.066;2023-02-12T06:54:27;98413.38;;;4.93;74.52
21821;BME280;11073;48.586;12.066;2023-02-12T06:57:12;98412.84;;;4.90;74.20
21821;BME280;11073;48.586;12.066;2023-02-12T06:59:41;98407.03;;;4.94;74.42
21821;BME280;11073;48.586;12.066;2023-02-12T07:02:10;98421.66;;;5.00;74.57
21821;BME280;11073;48.586;12.066;2023-02-12T07:04:39;98406.00;;;4.95;74.54
21821;BME280;11073;48.586;12.066;2023-02-12T07:07:07;98419.50;;;5.04;74.56
21821;BME280;11073;48.586;12.066;2023-02-12T07:09:37;98418.34;;;5.06;74.52
21821;BME280;11073;48.586;12.066;2023-02-12T07:12:06;98417.38;;;5.07;74.66
21821;BME280;11073;48.586;12.066;2023-02-12T07:14:35;98421.56;;;5.10;74.65
21821;BME280;11073;48.586;12.066;2023-02-12T07:17:04;98419.41;;;5.13;74.53
21821;BME280;11073;48.586;12.066;2023-02-12T07:19:35;98422.63;;;5.17;74.64
21821;BME280;11073;48.586;12.066;2023-02-12T07:22:04;98419.63;;;5.20;74.66
21821;BME280;11073;48.586;12.066;2023-02-12T07:24:32;98415.91;;;5.21;74.61
21821;BME280;11073;48.586;12.066;2023-02-12T07:27:03;98412.78;;;5.25;74.64
21821;BME280;11073;48.586;12.066;2023-02-12T07:29:32;98421.22;;;5.31;74.56
21821;BME280;11073;48.586;12.066;2023-02-12T07:32:00;98424.59;;;5.33;74.54
21821;BME280;11073;48.586;12.066;2023-02-12T07:34:29;98420.59;;;5.37;74.79
21821;BME280;11073;48.586;12.066;2023-02-12T07:36:58;98418.75;;;5.37;74.50
21821;BME280;11073;48.586;12.066;2023-02-12T07:39:27;98429.72;;;5.44;74.52
21821;BME280;11073;48.586;12.066;2023-02-12T07:41:55;98411.88;;;5.43;74.44
21821;BME280;11073;48.586;12.066;2023-02-12T07:44:26;98424.84;;;5.47;74.49
21821;BME280;11073;48.586;12.066;2023-02-12T07:46:54;98418.31;;;5.50;74.50
21821;BME280;11073;48.586;12.066;2023-02-12T07:49:23;98421.69;;;5.52;74.51
21821;BME280;11073;48.586;12.066;2023-02-12T07:51:52;98422.53;;;5.52;74.48
21821;BME280;11073;48.586;12.066;2023-02-12T07:54:23;98422.69;;;5.51;74.62
21821;BME280;11073;48.586;12.066;2023-02-12T07:56:52;98426.22;;;5.51;74.55
21821;BME280;11073;48.586;12.066;2023-02-12T07:59:21;98420.84;;;5.51;74.58
21821;BME280;11073;48.586;12.066;2023-02-12T08:01:52;98418.00;;;5.53;74.49
21821;BME280;11073;48.586;12.066;2023-02-12T08:04:22;98404.34;;;5.46;74.57
21821;BME280;11073;48.586;12.066;2023-02-12T08:06:53;98423.41;;;5.61;74.63
21821;BME280;11073;48.586;12.066;2023-02-12T08:09:24;98415.19;;;5.63;74.66
21821;BME280;11073;48.586;12.066;2023-02-12T08:11:54;98418.88;;;5.62;74.61
21821;BME280;11073;48.586;12.066;2023-02-12T08:14:22;98422.13;;;5.65;74.61
21821;BME280;11073;48.586;12.066;2023-02-12T08:16:52;98420.09;;;5.67;74.66
21821;BME280;11073;48.586;12.066;2023-02-12T08:19:21;98424.13;;;5.71;74.75
21821;BME280;11073;48.586;12.066;2023-02-12T08:21:53;98425.50;;;5.75;74.63
21821;BME280;11073;48.586;12.066;2023-02-12T08:24:23;98425.34;;;5.77;74.61
21821;BME280;11073;48.586;12.066;2023-02-12T08:26:52;98426.03;;;5.79;74.69
21821;BME280;11073;48.586;12.066;2023-02-12T08:29:23;98423.03;;;5.82;74.58
21821;BME280;11073;48.586;12.066;2023-02-12T08:31:56;98421.84;;;5.85;74.50
21821;BME280;11073;48.586;12.066;2023-02-12T08:34:27;98427.06;;;5.86;74.56
21821;BME280;11073;48.586;12.066;2023-02-12T08:36:56;98432.31;;;5.88;74.55
21821;BME280;11073;48.586;12.066;2023-02-12T08:39:27;98423.94;;;5.91;74.36
21821;BME280;11073;48.586;12.066;2023-02-12T08:41:57;98419.94;;;5.95;74.46
21821;BME280;11073;48.586;12.066;2023-02-12T08:44:26;98420.63;;;5.97;74.42
21821;BME280;11073;48.586;12.066;2023-02-12T08:46:56;98430.91;;;6.01;74.39
21821;BME280;11073;48.586;12.066;2023-02-12T08:49:26;98429.56;;;6.05;74.48
21821;BME280;11073;48.586;12.066;2023-02-12T08:51:57;98427.22;;;6.11;74.45
21821;BME280;11073;48.586;12.066;2023-02-12T08:54:29;98432.09;;;6.15;74.39
21821;BME280;11073;48.586;12.066;2023-02-12T08:56:59;98423.06;;;6.16;74.44
21821;BME280;11073;48.586;12.066;2023-02-12T08:59:28;98428.25;;;6.18;74.42
21821;BME280;11073;48.586;12.066;2023-02-12T09:01:59;98428.09;;;6.19;74.36
21821;BME280;11073;48.586;12.066;2023-02-12T09:04:28;98413.59;;;6.12;74.25
21821;BME280;11073;48.586;12.066;2023-02-12T09:06:57;98426.91;;;6.22;74.24
21821;BME280;11073;48.586;12.066;2023-02-12T09:09:26;98422.22;;;6.16;74.60
21821;BME280;11073;48.586;12.066;2023-02-12T09:11:54;98433.00;;;6.24;74.36
21821;BME280;11073;48.586;12.066;2023-02-12T09:14:23;98429.13;;;6.26;74.09
21821;BME280;11073;48.586;12.066;2023-02-12T09:16:52;98433.50;;;6.27;74.25
21821;BME280;11073;48.586;12.066;2023-02-12T09:19:22;98416.31;;;6.20;74.33
21821;BME280;11073;48.586;12.066;2023-02-12T09:21:51;98422.22;;;6.16;74.14
21821;BME280;11073;48.586;12.066;2023-02-12T09:24:22;98436.66;;;6.23;74.66
21821;BME280;11073;48.586;12.066;2023-02-12T09:26:51;98445.94;;;6.28;74.39
21821;BME280;11073;48.586;12.066;2023-02-12T09:29:19;98439.72;;;6.28;74.38
21821;BME280;11073;48.586;12.066;2023-02-12T09:31:48;98450.38;;;6.38;74.45
21821;BME280;11073;48.586;12.066;2023-02-12T09:34:17;98457.09;;;6.42;74.34
21821;BME280;11073;48.586;12.066;2023-02-12T09:36:47;98451.69;;;6.42;74.25
21821;BME280;11073;48.586;12.066;2023-02-12T09:39:15;98446.84;;;6.45;74.30
21821;BME280;11073;48.586;12.066;2023-02-12T09:42:22;98445.31;;;6.51;74.21
21821;BME280;11073;48.586;12.066;2023-02-12T09:44:59;98453.09;;;6.54;74.07
21821;BME280;11073;48.586;12.066;2023-02-12T09:47:35;98456.28;;;6.57;74.20
21821;BME280;11073;48.586;12.066;2023-02-12T09:50:22;98452.56;;;6.58;73.94
21821;BME280;11073;48.586;12.066;2023-02-12T09:52:55;98456.47;;;6.64;74.04
21821;BME280;11073;48.586;12.066;2023-02-12T09:55:28;98461.53;;;6.67;73.96
21821;BME280;11073;48.586;12.066;2023-02-12T09:57:57;98455.31;;;6.67;74.05
21821;BME280;11073;48.586;12.066;2023-02-12T10:00:29;98465.75;;;6.70;73.92
21821;BME280;11073;48.586;12.066;2023-02-12T10:03:02;98463.03;;;6.70;73.96
21821;BME280;11073;48.586;12.066;2023-02-12T10:05:37;98466.09;;;6.67;73.86
21821;BME280;11073;48.586;12.066;2023-02-12T10:08:19;98475.00;;;6.75;73.87
21821;BME280;11073;48.586;12.066;2023-02-12T10:10:53;98473.84;;;6.78;73.68
21821;BME280;11073;48.586;12.066;2023-02-12T10:13:35;98482.25;;;6.83;73.83
21821;BME280;11073;48.586;12.066;2023-02-12T10:16:12;98480.59;;;6.82;73.85
21821;BME280;11073;48.586;12.066;2023-02-12T10:18:54;98482.59;;;6.88;73.79
21821;BME280;11073;48.586;12.066;2023-02-12T10:21:35;98481.59;;;6.89;73.88
21821;BME280;11073;48.586;12.066;2023-02-12T10:24:30;98481.44;;;6.90;73.57
21821;BME280;11073;48.586;12.066;2023-02-12T10:27:08;98464.25;;;6.91;73.69
21821;BME280;11073;48.586;12.066;2023-02-12T10:29:40;98468.81;;;6.91;73.61
21821;BME280;11073;48.586;12.066;2023-02-12T10:32:17;98475.69;;;6.94;73.37
21821;BME280;11073;48.586;12.066;2023-02-12T10:34:49;98475.22;;;6.98;73.52
21821;BME280;11073;48.586;12.066;2023-02-12T10:37:25;98472.19;;;7.01;73.39
21821;BME280;11073;48.586;12.066;2023-02-12T10:40:00;98472.34;;;7.08;73.32
21821;BME280;11073;48.586;12.066;2023-02-12T10:42:36;98479.59;;;7.07;73.22
21821;BME280;11073;48.586;12.066;2023-02-12T10:45:11;98471.34;;;7.09;73.05
21821;BME280;11073;48.586;12.066;2023-02-12T10:47:43;98477.75;;;7.16;73.05
21821;BME280;11073;48.586;12.066;2023-02-12T10:50:19;98475.56;;;7.19;72.92
21821;BME280;11073;48.586;12.066;2023-02-12T10:52:53;98467.66;;;7.18;72.84
21821;BME280;11073;48.586;12.066;2023-02-12T10:55:27;98476.41;;;7.28;72.74
21821;BME280;11073;48.586;12.066;2023-02-12T10:57:58;98471.03;;;7.28;72.67
21821;BME280;11073;48.586;12.066;2023-02-12T11:00:30;98470.66;;;7.31;72.66
21821;BME280;11073;48.586;12.066;2023-02-12T11:03:18;98469.16;;;7.37;72.41
21821;BME280;11073;48.586;12.066;2023-02-12T11:05:48;98466.47;;;7.37;72.46
21821;BME280;11073;48.586;12.066;2023-02-12T11:08:28;98468.00;;;7.39;72.32
21821;BME280;11073;48.586;12.066;2023-02-12T11:11:07;98461.78;;;7.39;72.44
21821;BME280;11073;48.586;12.066;2023-02-12T11:13:38;98468.84;;;7.40;72.30
21821;BME280;11073;48.586;12.066;2023-02-12T11:16:07;98460.75;;;7.40;72.27
21821;BME280;11073;48.586;12.066;2023-02-12T11:18:37;98462.59;;;7.39;72.32
21821;BME280;11073;48.586;12.066;2023-02-12T11:21:08;98459.06;;;7.39;72.24
21821;BME280;11073;48.586;12.066;2023-02-12T11:23:38;98465.13;;;7.41;72.11
21821;BME280;11073;48.586;12.066;2023-02-12T11:26:23;98459.38;;;7.44;72.22
21821;BME280;11073;48.586;12.066;2023-02-12T11:28:54;98443.41;;;7.34;72.19
21821;BME280;11073;48.586;12.066;2023-02-12T11:31:25;98460.56;;;7.41;72.15
21821;BME280;11073;48.586;12.066;2023-02-12T11:34:09;98452.31;;;7.43;71.95
21821;BME280;11073;48.586;12.066;2023-02-12T11:36:43;98455.19;;;7.50;71.96
21821;BME280;11073;48.586;12.066;2023-02-12T11:39:19;98456.53;;;7.54;72.02
21821;BME280;11073;48.586;12.066;2023-02-12T11:41:52;98455.00;;;7.51;71.90
21821;BME280;11073;48.586;12.066;2023-02-12T11:44:25;98451.97;;;7.54;71.99
21821;BME280;11073;48.586;12.066;2023-02-12T11:46:57;98447.59;;;7.61;71.84
21821;BME280;11073;48.586;12.066;2023-02-12T11:49:30;98442.84;;;7.63;71.77
21821;BME280;11073;48.586;12.066;2023-02-12T11:52:01;98447.91;;;7.66;71.78
21821;BME280;11073;48.586;12.066;2023-02-12T11:54:35;98445.34;;;7.73;71.70
21821;BME280;11073;48.586;12.066;2023-02-12T11:57:11;98449.06;;;7.72;71.69
21821;BME280;11073;48.586;12.066;2023-02-12T12:00:04;98449.59;;;7.76;71.71
21821;BME280;11073;48.586;12.066;2023-02-12T12:02:54;98446.16;;;7.82;71.57
21821;BME280;11073;48.586;12.066;2023-02-12T12:05:29;98447.53;;;7.86;71.28
21821;BME280;11073;48.586;12.066;2023-02-12T12:08:04;98447.53;;;7.86;71.46
21821;BME280;11073;48.586;12.066;2023-02-12T12:10:39;98444.78;;;7.94;71.26
21821;BME280;11073;48.586;12.066;2023-02-12T12:13:14;98448.34;;;7.94;71.24
21821;BME280;11073;48.586;12.066;2023-02-12T12:15:48;98443.28;;;7.99;71.20
21821;BME280;11073;48.586;12.066;2023-02-12T12:18:41;98449.31;;;8.01;71.04
21821;BME280;11073;48.586;12.066;2023-02-12T12:21:36;98442.56;;;8.06;71.06
21821;BME280;11073;48.586;12.066;2023-02-12T12:24:10;98447.94;;;8.14;71.12
21821;BME280;11073;48.586;12.066;2023-02-12T12:26:46;98448.13;;;8.12;70.79
21821;BME280;11073;48.586;12.066;2023-02-12T12:29:20;98446.59;;;8.10;70.59
21821;BME280;11073;48.586;12.066;2023-02-12T12:31:55;98447.78;;;8.07;70.69
21821;BME280;11073;48.586;12.066;2023-02-12T12:34:27;98435.31;;;8.06;70.65
21821;BME280;11073;48.586;12.066;2023-02-12T12:37:13;98441.75;;;8.05;70.60
21821;BME280;11073;48.586;12.066;2023-02-12T12:39:52;98441.03;;;8.03;70.58
21821;BME280;11073;48.586;12.066;2023-02-12T12:45:52;98424.13;;;8.17;70.43
21821;BME280;11073;48.586;12.066;2023-02-12T12:48:39;98419.00;;;8.39;70.21
21821;BME280;11073;48.586;12.066;2023-02-12T12:51:23;98420.44;;;8.57;70.03
21821;BME280;11073;48.586;12.066;2023-02-12T12:54:06;98408.78;;;8.57;70.00
21821;BME280;11073;48.586;12.066;2023-02-12T12:56:46;98421.06;;;8.60;69.76
21821;BME280;11073;48.586;12.066;2023-02-12T13:02:57;98412.72;;;8.77;69.60
21821;BME280;11073;48.586;12.066;2023-02-12T13:05:56;98414.56;;;9.00;69.17
21821;BME280;11073;48.586;12.066;2023-02-12T13:08:36;98414.88;;;9.20;68.84
21821;BME280;11073;48.586;12.066;2023-02-12T13:11:15;98405.81;;;9.35;68.69
21821;BME280;11073;48.586;12.066;2023-02-12T13:13:56;98413.84;;;9.44;68.36
21821;BME280;11073;48.586;12.066;2023-02-12T13:16:32;98413.97;;;9.50;68.35
21821;BME280;11073;48.586;12.066;2023-02-12T13:19:07;98415.63;;;9.51;67.78
21821;BME280;11073;48.586;12.066;2023-02-12T13:21:47;98417.50;;;9.51;67.47
21821;BME280;11073;48.586;12.066;2023-02-12T13:24:25;98406.25;;;9.24;67.20
21821;BME280;11073;48.586;12.066;2023-02-12T13:26:57;98419.31;;;9.21;67.04
21821;BME280;11073;48.586;12.066;2023-02-12T13:29:31;98416.00;;;9.10;67.00
21821;BME280;11073;48.586;12.066;2023-02-12T13:32:05;98425.25;;;9.16;67.28
21821;BME280;11073;48.586;12.066;2023-02-12T13:34:37;98419.66;;;9.18;67.17
21821;BME280;11073;48.586;12.066;2023-02-12T13:37:13;98424.09;;;9.10;66.77
21821;BME280;11073;48.586;12.066;2023-02-12T13:39:46;98422.13;;;9.04;66.60
21821;BME280;11073;48.586;12.066;2023-02-12T13:42:35;98424.34;;;9.01;66.40
21821;BME280;11073;48.586;12.066;2023-02-12T13:45:18;98412.22;;;8.97;66.09
21821;BME280;11073;48.586;12.066;2023-02-12T13:47:58;98405.84;;;8.90;66.25
21821;BME280;11073;48.586;12.066;2023-02-12T13:50:37;98418.44;;;8.97;66.28
21821;BME280;11073;48.586;12.066;2023-02-12T13:53:18;98417.47;;;8.98;65.97
21821;BME280;11073;48.586;12.066;2023-02-12T13:56:04;98411.25;;;8.90;65.72
21821;BME280;11073;48.586;12.066;2023-02-12T13:58:48;98420.56;;;8.87;65.86
21821;BME280;11073;48.586;12.066;2023-02-12T14:01:35;98408.75;;;8.88;65.85
21821;BME280;11073;48.586;12.066;2023-02-12T14:04:26;98404.16;;;8.89;66.05
21821;BME280;11073;48.586;12.066;2023-02-12T14:06:58;98422.25;;;8.88;65.86
21821;BME280;11073;48.586;12.066;2023-02-12T14:09:33;98413.00;;;8.82;65.72
21821;BME280;11073;48.586;12.066;2023-02-12T14:12:06;98423.56;;;8.69;65.67
21821;BME280;11073;48.586;12.066;2023-02-12T14:14:40;98407.44;;;8.53;65.73
21821;BME280;11073;48.586;12.066;2023-02-12T14:17:40;98412.00;;;8.52;66.03
21821;BME280;11073;48.586;12.066;2023-02-12T14:20:21;98412.84;;;8.53;66.10
21821;BME280;11073;48.586;12.066;2023-02-12T14:26:02;98403.16;;;8.67;66.03
21821;BME280;11073;48.586;12.066;2023-02-12T14:28:45;98405.72;;;8.60;65.68
21821;BME280;11073;48.586;12.066;2023-02-12T14:31:36;98409.25;;;8.61;65.61
21821;BME280;11073;48.586;12.066;2023-02-12T14:37:35;98408.22;;;8.70;65.66
21821;BME280;11073;48.586;12.066;2023-02-12T14:40:41;98410.91;;;8.70;65.48
21821;BME280;11073;48.586;12.066;2023-02-12T14:43:37;98412.41;;;8.72;65.46
21821;BME280;11073;48.586;12.066;2023-02-12T14:46:43;98405.66;;;8.68;65.29
21821;BME280;11073;48.586;12.066;2023-02-12T14:49:22;98412.72;;;8.77;65.22
21821;BME280;11073;48.586;12.066;2023-02-12T14:51:56;98408.28;;;8.84;65.08
21821;BME280;11073;48.586;12.066;2023-02-12T14:54:29;98405.50;;;8.93;64.73
21821;BME280;11073;48.586;12.066;2023-02-12T14:57:03;98413.00;;;9.05;64.64
21821;BME280;11073;48.586;12.066;2023-02-12T14:59:38;98409.63;;;9.03;64.77
21821;BME280;11073;48.586;12.066;2023-02-12T15:02:13;98411.03;;;8.99;64.37
21821;BME280;11073;48.586;12.066;2023-02-12T15:04:44;98387.13;;;8.88;64.77
21821;BME280;11073;48.586;12.066;2023-02-12T15:07:19;98403.63;;;9.16;64.69
21821;BME280;11073;48.586;12.066;2023-02-12T15:09:51;98397.69;;;9.21;64.42
21821;BME280;11073;48.586;12.066;2023-02-12T15:12:28;98406.19;;;9.47;64.47
21821;BME280;11073;48.586;12.066;2023-02-12T15:15:06;98399.34;;;9.74;64.04
21821;BME280;11073;48.586;12.066;2023-02-12T15:17:50;98399.25;;;9.97;63.79
21821;BME280;11073;48.586;12.066;2023-02-12T15:20:23;98407.72;;;10.09;63.21